Time;durP1;ratioP1;P1;durP2;ratioP2;P2;SDS_P1;SDS_P2;PMS_P1;PMS_P2;Temp;Humidity;BMP_temperature;BMP_pressure;BME280_temperature;BME280_humidity;BME280_pressure;Samples;Min_cycle;Max_cycle;Signal;HPM_P1;HPM_P2
2021/06/06 00:02:09;;;;;;;10.05;7.57;;;20.10;62.00;;;;;;4951589;28;20057;-86
2021/06/06 00:04:39;;;;;;;9.30;7.32;;;20.10;62.00;;;;;;4938454;28;20035;-83
2021/06/06 00:07:05;;;;;;;9.57;7.95;;;20.10;62.10;;;;;;4952211;28;20031;-87
2021/06/06 00:09:31;;;;;;;10.93;7.95;;;20.10;62.10;;;;;;4948348;29;20163;-85
2021/06/06 00:11:56;;;;;;;10.02;7.68;;;20.10;62.10;;;;;;4952722;29;20130;-85
2021/06/06 00:14:29;;;;;;;8.75;7.05;;;20.00;62.10;;;;;;4953768;28;20114;-85
2021/06/06 00:16:57;;;;;;;9.65;6.93;;;20.00;62.20;;;;;;4955486;28;20027;-85
2021/06/06 00:19:25;;;;;;;9.38;6.68;;;20.00;62.20;;;;;;4941858;28;20122;-85
2021/06/06 00:21:53;;;;;;;9.25;7.40;;;20.00;62.20;;;;;;4972563;28;20022;-86
2021/06/06 00:24:22;;;;;;;8.85;6.85;;;20.00;62.30;;;;;;4948385;28;20062;-86
2021/06/06 00:26:49;;;;;;;8.93;7.00;;;20.00;62.30;;;;;;4964005;28;20031;-85
2021/06/06 00:29:15;;;;;;;7.93;6.30;;;19.90;62.20;;;;;;4974210;28;20022;-86
2021/06/06 00:31:41;;;;;;;9.05;6.45;;;20.00;62.30;;;;;;4951807;28;20123;-87
2021/06/06 00:34:07;;;;;;;8.50;7.07;;;19.90;62.20;;;;;;4956342;28;20085;-86
2021/06/06 00:36:34;;;;;;;8.23;6.15;;;19.90;62.30;;;;;;4925424;28;20039;-86
2021/06/06 00:39:00;;;;;;;8.60;6.50;;;19.90;62.30;;;;;;4937795;28;20130;-86
2021/06/06 00:41:29;;;;;;;7.55;6.10;;;19.90;62.30;;;;;;4972396;28;20029;-85
2021/06/06 00:43:58;;;;;;;8.02;5.70;;;19.90;62.40;;;;;;4971664;28;20019;-86
2021/06/06 00:46:28;;;;;;;8.00;6.30;;;19.80;62.40;;;;;;4928170;28;20077;-86
2021/06/06 00:48:54;;;;;;;8.13;5.75;;;19.80;62.30;;;;;;4960159;28;20022;-86
2021/06/06 00:51:27;;;;;;;7.93;6.15;;;19.80;62.40;;;;;;4959703;28;20030;-86
2021/06/06 00:54:15;;;;;;;7.65;5.88;;;19.80;62.40;;;;;;4968139;28;20031;-85
2021/06/06 00:56:46;;;;;;;8.43;6.13;;;19.80;62.60;;;;;;4959361;28;20054;-84
2021/06/06 00:59:15;;;;;;;7.13;5.60;;;19.70;62.40;;;;;;4970257;28;20383;-85
2021/06/06 01:01:41;;;;;;;7.85;5.43;;;19.80;62.50;;;;;;4939060;28;20038;-83
2021/06/06 01:04:07;;;;;;;8.30;5.88;;;19.70;62.40;;;;;;4924973;29;20034;-84
2021/06/06 01:06:44;;;;;;;8.23;6.20;;;19.70;63.10;;;;;;4934843;28;20034;-85
2021/06/06 01:09:14;;;;;;;7.65;5.53;;;19.70;62.50;;;;;;4957117;28;20066;-86
2021/06/06 01:12:04;;;;;;;8.82;6.45;;;19.70;62.50;;;;;;4957949;28;20027;-85
2021/06/06 01:14:50;;;;;;;8.13;6.05;;;19.70;62.60;;;;;;4959855;28;20083;-86
2021/06/06 01:17:49;;;;;;;7.22;5.57;;;19.70;62.60;;;;;;4968467;28;20034;-85
2021/06/06 01:20:54;;;;;;;8.07;5.20;;;19.70;62.70;;;;;;4958124;28;20118;-86
2021/06/06 01:23:54;;;;;;;7.78;5.53;;;19.60;62.60;;;;;;4975546;28;20050;-85
2021/06/06 01:26:45;;;;;;;8.52;5.28;;;19.70;62.70;;;;;;4934485;28;20044;-85
2021/06/06 01:29:36;;;;;;;7.68;5.72;;;19.60;62.60;;;;;;4973252;28;20746;-84
2021/06/06 01:32:22;;;;;;;8.13;5.55;;;19.60;62.80;;;;;;4953792;28;20027;-85
2021/06/06 01:35:00;;;;;;;6.72;5.10;;;19.50;62.80;;;;;;4965170;28;20054;-85
2021/06/06 01:37:29;;;;;;;8.27;5.88;;;19.50;62.70;;;;;;4957374;28;20027;-85
2021/06/06 01:40:01;;;;;;;8.20;5.75;;;19.50;62.70;;;;;;4932053;28;20090;-85
2021/06/06 01:42:35;;;;;;;8.13;5.97;;;19.50;62.80;;;;;;4958476;28;20035;-85
2021/06/06 01:45:13;;;;;;;8.07;5.55;;;19.50;62.80;;;;;;4954502;28;20443;-85
2021/06/06 01:47:41;;;;;;;6.93;5.05;;;19.50;62.80;;;;;;4954293;28;20031;-85
2021/06/06 01:50:15;;;;;;;8.40;5.50;;;19.50;62.80;;;;;;4959503;28;20118;-86
2021/06/06 01:52:43;;;;;;;8.65;5.60;;;19.50;62.80;;;;;;4956047;28;20459;-85
2021/06/06 01:55:14;;;;;;;8.00;5.70;;;19.50;62.80;;;;;;4943573;28;20066;-86
2021/06/06 01:57:51;;;;;;;8.30;5.78;;;19.40;62.80;;;;;;4943585;28;20054;-86
2021/06/06 02:00:29;;;;;;;7.95;5.72;;;19.50;62.90;;;;;;4958246;28;20037;-87
2021/06/06 02:03:11;;;;;;;8.45;5.63;;;19.40;62.80;;;;;;4954959;28;20070;-86
2021/06/06 02:05:37;;;;;;;7.90;5.53;;;19.40;62.80;;;;;;4947862;28;20035;-86
2021/06/06 02:08:04;;;;;;;7.80;5.90;;;19.40;62.90;;;;;;4972329;28;20035;-86
2021/06/06 02:10:39;;;;;;;7.47;5.80;;;19.40;62.90;;;;;;4966204;28;20186;-85
2021/06/06 02:13:18;;;;;;;7.63;5.35;;;19.40;63.00;;;;;;4945540;28;20034;-85
2021/06/06 02:15:54;;;;;;;8.63;5.80;;;19.40;63.00;;;;;;4942727;28;20053;-85
2021/06/06 02:18:28;;;;;;;8.65;5.85;;;19.40;63.00;;;;;;4974468;28;20033;-84
2021/06/06 02:20:58;;;;;;;8.40;5.72;;;19.40;62.90;;;;;;4968079;28;20112;-85
2021/06/06 02:23:27;;;;;;;7.57;5.60;;;19.40;62.90;;;;;;4948035;28;20074;-86
2021/06/06 02:26:06;;;;;;;7.95;5.60;;;19.30;63.00;;;;;;4950828;28;20038;-85
2021/06/06 02:28:41;;;;;;;8.45;6.18;;;19.30;63.00;;;;;;4949159;28;20361;-86
2021/06/06 02:31:37;;;;;;;8.48;5.65;;;19.30;63.10;;;;;;4950105;28;20030;-86
2021/06/06 02:34:26;;;;;;;8.60;5.90;;;19.30;63.10;;;;;;4974817;28;20049;-85
2021/06/06 02:37:08;;;;;;;8.18;5.50;;;19.30;63.00;;;;;;4953431;28;20801;-83
2021/06/06 02:39:41;;;;;;;7.65;5.47;;;19.30;63.00;;;;;;4977140;28;20051;-85
2021/06/06 02:42:11;;;;;;;8.32;5.53;;;19.20;63.10;;;;;;4972338;28;20058;-86
2021/06/06 02:44:48;;;;;;;7.25;5.22;;;19.20;63.10;;;;;;4968849;28;20471;-86
2021/06/06 02:47:22;;;;;;;7.65;5.60;;;19.20;63.10;;;;;;4957358;28;20026;-86
2021/06/06 02:49:55;;;;;;;8.65;5.82;;;19.20;63.10;;;;;;4972333;28;20062;-84
2021/06/06 02:52:44;;;;;;;8.68;6.20;;;19.20;63.10;;;;;;4958053;28;20031;-86
2021/06/06 02:55:41;;;;;;;7.97;5.82;;;19.20;63.30;;;;;;4941633;28;20114;-86
2021/06/06 02:58:36;;;;;;;8.98;6.18;;;19.20;63.10;;;;;;4957656;28;20109;-86
2021/06/06 03:01:09;;;;;;;8.23;5.95;;;19.20;63.30;;;;;;4938295;28;20042;-86
2021/06/06 03:03:40;;;;;;;8.13;6.32;;;19.20;63.10;;;;;;4973263;28;20501;-85
2021/06/06 03:07:08;;;;;;;8.82;5.95;;;19.20;63.20;;;;;;4964553;28;20043;-85
2021/06/06 03:09:37;;;;;;;8.38;6.07;;;19.20;63.30;;;;;;4947328;28;20505;-85
2021/06/06 03:12:09;;;;;;;9.63;5.93;;;19.20;63.20;;;;;;4984024;28;20015;-85
2021/06/06 03:14:42;;;;;;;8.48;6.55;;;19.10;63.20;;;;;;4969024;28;20027;-85
2021/06/06 03:17:24;;;;;;;9.48;6.72;;;19.10;63.20;;;;;;4940880;28;20030;-85
2021/06/06 03:19:54;;;;;;;8.75;5.97;;;19.10;63.30;;;;;;4973969;28;20046;-85
2021/06/06 03:22:27;;;;;;;8.63;6.03;;;19.10;63.30;;;;;;4971600;28;20037;-86
2021/06/06 03:24:57;;;;;;;10.15;6.57;;;19.10;63.30;;;;;;4963902;28;20030;-85
2021/06/06 03:27:32;;;;;;;9.13;6.38;;;19.10;63.30;;;;;;4970085;28;20074;-85
2021/06/06 03:30:26;;;;;;;9.13;6.57;;;19.10;63.30;;;;;;4940690;28;20042;-85
2021/06/06 03:32:54;;;;;;;9.25;6.70;;;19.10;63.40;;;;;;4963910;28;20078;-85
2021/06/06 03:35:22;;;;;;;7.40;5.57;;;19.10;63.30;;;;;;4963985;28;20093;-86
2021/06/06 03:37:49;;;;;;;9.82;6.75;;;19.10;63.40;;;;;;4963927;28;20037;-85
2021/06/06 03:40:27;;;;;;;8.60;6.65;;;19.10;63.40;;;;;;4955385;28;20082;-86
2021/06/06 03:43:06;;;;;;;9.75;7.00;;;19.10;63.40;;;;;;4958109;28;20023;-85
2021/06/06 03:45:32;;;;;;;8.95;6.68;;;19.10;63.40;;;;;;4947925;28;20456;-86
2021/06/06 03:48:01;;;;;;;9.32;6.88;;;19.10;63.40;;;;;;4930456;28;20066;-85
2021/06/06 03:50:31;;;;;;;9.57;7.05;;;19.00;63.40;;;;;;4971396;28;20038;-85
2021/06/06 03:52:57;;;;;;;9.80;7.50;;;19.00;63.40;;;;;;4944467;28;20023;-82
2021/06/06 03:55:24;;;;;;;10.38;6.82;;;19.00;63.40;;;;;;4963953;28;20030;-85
2021/06/06 03:57:52;;;;;;;11.32;7.60;;;19.00;63.40;;;;;;4926125;28;20027;-86
2021/06/06 04:00:33;;;;;;;10.88;7.82;;;19.00;63.40;;;;;;4958829;28;20043;-83
2021/06/06 04:03:03;;;;;;;10.38;7.80;;;19.00;63.60;;;;;;4952604;28;20029;-87
2021/06/06 04:05:34;;;;;;;9.68;6.93;;;19.00;63.40;;;;;;4938425;28;20063;-85
2021/06/06 04:08:05;;;;;;;10.40;7.45;;;19.00;63.40;;;;;;4961356;28;20077;-83
2021/06/06 04:10:34;;;;;;;9.00;6.82;;;19.00;63.50;;;;;;4949118;28;20118;-85
2021/06/06 04:13:05;;;;;;;11.15;8.23;;;19.00;63.50;;;;;;4926475;29;20488;-86
2021/06/06 04:15:32;;;;;;;9.75;6.80;;;19.00;63.60;;;;;;4962279;28;20507;-86
2021/06/06 04:18:11;;;;;;;9.98;6.97;;;19.00;63.60;;;;;;4956140;28;20111;-85
2021/06/06 04:20:37;;;;;;;10.45;7.13;;;19.00;63.70;;;;;;4935673;28;20063;-86
2021/06/06 04:23:03;;;;;;;10.23;7.20;;;18.90;63.50;;;;;;4953568;28;20020;-85
2021/06/06 04:25:30;;;;;;;9.30;7.15;;;19.00;63.60;;;;;;4956639;28;20034;-84
2021/06/06 04:27:57;;;;;;;8.93;6.82;;;18.90;63.60;;;;;;4956724;28;20094;-86
2021/06/06 04:30:24;;;;;;;9.07;7.25;;;18.90;63.60;;;;;;4947040;28;20106;-87
2021/06/06 04:32:51;;;;;;;9.35;7.07;;;18.90;63.60;;;;;;4977506;28;20022;-85
2021/06/06 04:35:18;;;;;;;9.82;7.32;;;18.90;63.60;;;;;;4945934;28;20184;-85
2021/06/06 04:37:44;;;;;;;9.45;6.88;;;18.90;63.60;;;;;;4940257;28;20475;-84
2021/06/06 04:40:13;;;;;;;9.77;6.75;;;18.90;63.60;;;;;;4943135;29;20124;-83
2021/06/06 04:42:40;;;;;;;9.68;7.10;;;18.90;63.60;;;;;;4957518;28;20035;-86
2021/06/06 04:45:11;;;;;;;9.00;7.05;;;18.90;63.60;;;;;;4943366;28;20463;-86
2021/06/06 04:47:39;;;;;;;10.00;7.53;;;18.90;63.60;;;;;;4973079;28;20071;-86
2021/06/06 04:50:09;;;;;;;11.23;7.55;;;18.90;63.60;;;;;;4939821;29;20391;-88
2021/06/06 04:52:38;;;;;;;9.93;6.85;;;18.90;63.70;;;;;;4957571;28;20466;-85
2021/06/06 04:55:12;;;;;;;9.93;7.18;;;18.80;63.60;;;;;;4946936;29;20035;-86
2021/06/06 04:57:39;;;;;;;10.43;7.68;;;18.90;63.60;;;;;;4962261;28;20034;-87
2021/06/06 05:00:12;;;;;;;10.20;7.43;;;18.90;63.60;;;;;;4960659;28;20143;-87
2021/06/06 05:02:39;;;;;;;10.15;7.65;;;18.80;63.60;;;;;;4964623;28;20472;-86
2021/06/06 05:05:08;;;;;;;9.45;7.53;;;18.80;63.60;;;;;;4949097;28;20023;-86
2021/06/06 05:07:36;;;;;;;9.80;7.40;;;18.80;63.60;;;;;;4943535;28;20031;-84
2021/06/06 05:10:04;;;;;;;10.40;7.32;;;18.80;63.60;;;;;;4955994;28;20042;-86
2021/06/06 05:12:31;;;;;;;10.32;6.95;;;18.80;63.70;;;;;;4963521;28;20089;-86
2021/06/06 05:14:57;;;;;;;8.82;7.10;;;18.80;63.70;;;;;;4938800;28;20143;-86
2021/06/06 05:17:23;;;;;;;8.52;6.75;;;18.80;63.70;;;;;;4955503;28;20103;-86
2021/06/06 05:19:53;;;;;;;8.00;6.38;;;18.80;63.80;;;;;;4959090;28;20035;-86
2021/06/06 05:22:20;;;;;;;7.80;6.22;;;18.80;63.70;;;;;;4939604;29;20038;-86
2021/06/06 05:24:49;;;;;;;8.57;6.53;;;18.80;63.80;;;;;;4952349;28;20042;-86
2021/06/06 05:27:17;;;;;;;7.57;6.18;;;18.80;63.80;;;;;;4955127;28;20109;-87
2021/06/06 05:29:43;;;;;;;9.65;7.30;;;18.80;63.80;;;;;;4957698;28;20058;-86
2021/06/06 05:32:09;;;;;;;8.98;6.63;;;18.80;63.80;;;;;;4935390;28;20082;-86
2021/06/06 05:34:35;;;;;;;8.40;6.10;;;18.80;63.80;;;;;;4935333;28;20039;-86
2021/06/06 05:37:00;;;;;;;8.45;6.18;;;18.80;63.90;;;;;;4958478;28;20035;-85
2021/06/06 05:39:26;;;;;;;8.50;6.30;;;18.70;64.50;;;;;;4961512;28;20059;-86
2021/06/06 05:41:52;;;;;;;9.32;6.45;;;18.80;63.90;;;;;;4965134;28;20039;-85
2021/06/06 05:44:18;;;;;;;8.35;6.03;;;18.80;63.90;;;;;;4936423;28;20531;-85
2021/06/06 05:46:43;;;;;;;8.38;6.15;;;18.80;63.90;;;;;;4956566;28;20123;-86
2021/06/06 05:49:09;;;;;;;8.10;5.90;;;18.70;63.90;;;;;;4959117;28;20049;-86
2021/06/06 05:51:35;;;;;;;7.88;6.03;;;18.80;63.90;;;;;;4938401;29;20039;-85
2021/06/06 05:54:05;;;;;;;8.15;6.05;;;18.70;63.90;;;;;;4956170;28;20059;-86
2021/06/06 05:56:31;;;;;;;7.85;5.80;;;18.70;63.90;;;;;;4964289;28;20060;-86
2021/06/06 05:58:56;;;;;;;8.65;6.28;;;18.80;64.00;;;;;;4956074;28;20038;-86
2021/06/06 06:01:22;;;;;;;8.73;6.00;;;18.80;64.00;;;;;;4932653;28;20492;-85
2021/06/06 06:03:48;;;;;;;7.53;5.53;;;18.80;64.00;;;;;;4933856;28;20054;-86
2021/06/06 06:06:15;;;;;;;8.35;5.20;;;18.70;64.00;;;;;;4956992;28;20046;-86
2021/06/06 06:08:44;;;;;;;8.75;6.35;;;18.70;64.10;;;;;;4945025;28;20035;-87
2021/06/06 06:11:13;;;;;;;7.93;5.90;;;18.70;64.10;;;;;;4963698;28;20191;-86
2021/06/06 06:13:41;;;;;;;7.85;5.90;;;18.70;64.10;;;;;;4960889;28;20026;-87
2021/06/06 06:16:10;;;;;;;7.50;5.60;;;18.70;64.70;;;;;;4959870;28;20019;-88
2021/06/06 06:18:37;;;;;;;9.18;6.35;;;18.70;64.10;;;;;;4953085;28;20034;-87
2021/06/06 06:21:06;;;;;;;8.57;6.18;;;18.70;64.10;;;;;;4960177;28;20035;-88
2021/06/06 06:23:32;;;;;;;7.95;6.00;;;18.70;64.20;;;;;;4953987;28;20105;-88
2021/06/06 06:25:58;;;;;;;8.68;6.18;;;18.70;64.10;;;;;;4957177;28;20464;-86
2021/06/06 06:28:24;;;;;;;7.80;5.70;;;18.70;64.10;;;;;;4962114;28;20118;-88
2021/06/06 06:31:02;;;;;;;8.07;6.10;;;18.70;64.10;;;;;;4959437;28;20037;-86
2021/06/06 06:33:35;;;;;;;7.97;5.47;;;18.70;64.10;;;;;;4932949;28;20027;-86
2021/06/06 06:36:01;;;;;;;7.75;5.57;;;18.70;64.10;;;;;;4945313;28;20082;-87
2021/06/06 06:38:27;;;;;;;7.25;5.20;;;18.80;64.20;;;;;;4957341;28;20403;-85
2021/06/06 06:40:54;;;;;;;8.45;5.80;;;18.70;64.10;;;;;;4921068;29;20134;-86
2021/06/06 06:43:19;;;;;;;7.63;5.95;;;18.70;64.10;;;;;;4946638;28;20082;-92
2021/06/06 06:45:47;;;;;;;7.32;5.75;;;18.70;64.10;;;;;;4926568;29;20067;-92
2021/06/06 06:48:19;;;;;;;7.88;5.75;;;18.70;64.10;;;;;;4923834;28;20061;-93
2021/06/06 06:50:47;;;;;;;7.88;5.85;;;18.70;64.30;;;;;;4948737;29;20023;-89
2021/06/06 06:53:13;;;;;;;8.07;5.57;;;18.80;64.30;;;;;;4918447;28;20046;-90
2021/06/06 06:55:39;;;;;;;7.40;5.40;;;18.70;64.20;;;;;;4956717;28;20099;-86
2021/06/06 06:58:06;;;;;;;7.93;6.35;;;18.70;64.20;;;;;;4935670;29;20031;-90
2021/06/06 07:00:37;;;;;;;8.40;6.05;;;18.70;64.20;;;;;;4934192;29;20038;-92
2021/06/06 07:03:03;;;;;;;8.35;5.53;;;18.70;64.20;;;;;;4938303;28;20019;-93
2021/06/06 07:05:29;;;;;;;7.20;5.53;;;18.70;64.30;;;;;;4939632;29;20039;-91
2021/06/06 07:07:56;;;;;;;8.80;6.03;;;18.70;64.20;;;;;;4935884;28;20026;-86
2021/06/06 07:10:24;;;;;;;8.60;6.20;;;18.70;64.30;;;;;;4927524;29;20038;-91
2021/06/06 07:12:51;;;;;;;8.05;5.60;;;18.70;64.30;;;;;;4961111;28;20051;-90
2021/06/06 07:15:18;;;;;;;8.35;6.60;;;18.80;64.40;;;;;;4938057;28;20031;-90
2021/06/06 07:17:45;;;;;;;7.53;5.90;;;18.80;64.40;;;;;;4938111;29;20536;-93
2021/06/06 07:20:15;;;;;;;7.80;6.00;;;18.80;64.40;;;;;;4931256;29;20058;-93
2021/06/06 07:22:41;;;;;;;8.68;6.65;;;18.80;64.50;;;;;;4962412;28;20049;-94
2021/06/06 07:25:10;;;;;;;7.60;5.65;;;18.80;64.40;;;;;;4933135;29;20023;-92
2021/06/06 07:27:37;;;;;;;8.05;5.90;;;18.80;64.50;;;;;;4945956;28;20536;-93
2021/06/06 07:30:09;;;;;;;9.25;6.47;;;18.80;64.40;;;;;;4918240;28;20116;-94
2021/06/06 07:32:36;;;;;;;8.60;6.63;;;18.90;64.60;;;;;;4927837;29;20026;-93
2021/06/06 07:35:03;;;;;;;9.35;6.65;;;18.90;64.50;;;;;;4918010;29;20027;-91
2021/06/06 07:37:29;;;;;;;9.02;6.28;;;18.90;64.60;;;;;;4951311;29;20204;-92
2021/06/06 07:39:55;;;;;;;8.65;6.20;;;18.90;64.60;;;;;;4923877;28;20146;-88
2021/06/06 07:42:21;;;;;;;9.13;7.03;;;18.90;64.60;;;;;;4932824;28;20058;-91
2021/06/06 07:44:46;;;;;;;8.25;6.32;;;19.00;64.60;;;;;;4948703;28;20019;-90
2021/06/06 07:47:12;;;;;;;8.52;6.57;;;19.00;64.60;;;;;;4925957;28;20031;-89
2021/06/06 07:49:38;;;;;;;8.90;6.22;;;19.00;64.70;;;;;;4939792;28;20035;-91
2021/06/06 07:52:06;;;;;;;8.88;6.70;;;19.00;64.70;;;;;;4941741;28;20023;-90
2021/06/06 07:54:33;;;;;;;8.95;6.30;;;19.00;64.70;;;;;;4971282;28;20046;-88
2021/06/06 07:57:00;;;;;;;7.60;5.93;;;19.00;64.70;;;;;;4966218;28;20106;-86
2021/06/06 07:59:26;;;;;;;8.27;6.13;;;19.00;64.70;;;;;;4958835;28;20031;-87
2021/06/06 08:01:53;;;;;;;8.73;6.45;;;19.10;64.70;;;;;;4941532;28;20027;-90
2021/06/06 08:04:21;;;;;;;8.60;6.63;;;19.10;64.70;;;;;;4940416;28;20046;-87
2021/06/06 08:06:47;;;;;;;7.45;6.05;;;19.10;64.70;;;;;;4955783;28;20027;-86
2021/06/06 08:09:14;;;;;;;8.93;6.25;;;19.10;64.60;;;;;;4967358;28;20110;-87
2021/06/06 08:11:41;;;;;;;7.47;5.53;;;19.10;64.60;;;;;;4952645;28;20035;-90
2021/06/06 08:14:07;;;;;;;8.20;5.90;;;19.10;64.60;;;;;;4968820;28;20026;-90
2021/06/06 08:16:35;;;;;;;7.70;6.03;;;19.20;64.60;;;;;;4954534;28;20043;-88
2021/06/06 08:19:01;;;;;;;8.05;5.60;;;19.20;64.60;;;;;;4962298;28;20033;-91
2021/06/06 08:21:33;;;;;;;7.82;6.22;;;19.20;64.50;;;;;;4955067;28;20031;-92
2021/06/06 08:23:59;;;;;;;8.32;5.72;;;19.20;64.60;;;;;;4954007;28;20376;-91
2021/06/06 08:26:26;;;;;;;7.13;5.63;;;19.30;64.50;;;;;;4963601;28;20046;-96
2021/06/06 08:28:53;;;;;;;8.15;5.53;;;19.30;64.50;;;;;;4941344;28;20038;-90
2021/06/06 08:31:23;;;;;;;8.05;5.57;;;19.30;64.50;;;;;;4970395;28;20026;-91
2021/06/06 08:33:49;;;;;;;6.88;5.32;;;19.30;64.50;;;;;;4975956;28;20132;-95
2021/06/06 08:36:23;;;;;;;7.75;5.70;;;19.30;64.40;;;;;;4964769;28;20032;-89
2021/06/06 08:38:54;;;;;;;7.88;5.88;;;19.30;64.50;;;;;;4968804;28;20081;-91
2021/06/06 08:41:24;;;;;;;6.28;4.93;;;19.30;64.60;;;;;;4946595;28;20043;-87
2021/06/06 08:43:59;;;;;;;8.95;5.80;;;19.30;64.80;;;;;;4973358;28;20062;-91
2021/06/06 08:46:26;;;;;;;7.05;4.93;;;19.40;65.00;;;;;;4964044;28;20023;-93
2021/06/06 08:48:53;;;;;;;7.00;5.57;;;19.40;64.90;;;;;;4951308;28;20682;-88
2021/06/06 08:51:22;;;;;;;6.70;5.38;;;19.40;64.90;;;;;;4940141;28;20398;-89
2021/06/06 08:54:19;;;;;;;7.90;5.82;;;19.40;64.90;;;;;;4956920;28;20034;-87
2021/06/06 08:56:48;;;;;;;5.90;4.63;;;19.50;65.10;;;;;;4971492;28;20544;-89
2021/06/06 08:59:33;;;;;;;6.93;5.10;;;19.50;64.80;;;;;;4963786;28;20047;-88
2021/06/06 09:02:25;;;;;;;5.60;4.32;;;19.60;65.10;;;;;;4971074;28;20551;-87
2021/06/06 09:04:52;;;;;;;5.55;4.35;;;19.60;65.00;;;;;;4966194;28;20026;-88
2021/06/06 09:07:32;;;;;;;6.20;4.57;;;19.60;64.80;;;;;;4936261;28;20027;-88
2021/06/06 09:10:10;;;;;;;5.63;4.28;;;19.60;64.90;;;;;;4950262;28;20443;-89
2021/06/06 09:12:36;;;;;;;5.82;4.68;;;19.70;64.80;;;;;;4953939;28;20026;-87
2021/06/06 09:15:04;;;;;;;5.93;4.55;;;19.70;64.70;;;;;;4958317;28;20058;-91
2021/06/06 09:17:47;;;;;;;5.60;4.07;;;19.80;64.70;;;;;;4959918;28;20094;-86
2021/06/06 09:20:34;;;;;;;5.72;4.38;;;19.80;64.70;;;;;;4957588;28;20694;-86
2021/06/06 09:23:10;;;;;;;6.65;4.35;;;19.90;64.70;;;;;;4952595;28;20026;-86
2021/06/06 09:25:39;;;;;;;4.72;3.63;;;19.90;64.60;;;;;;4954542;28;20396;-87
2021/06/06 09:28:20;;;;;;;5.85;4.25;;;20.00;64.50;;;;;;4988816;28;20018;-87
2021/06/06 09:30:59;;;;;;;4.82;3.83;;;20.00;64.50;;;;;;4953222;28;20026;-92
2021/06/06 09:33:36;;;;;;;5.18;3.63;;;20.00;64.50;;;;;;4973553;28;20041;-91
2021/06/06 09:36:15;;;;;;;5.13;3.70;;;20.10;64.40;;;;;;4956275;28;20035;-93
2021/06/06 09:38:42;;;;;;;4.95;3.60;;;20.10;64.40;;;;;;4968244;28;20042;-88
2021/06/06 09:41:21;;;;;;;5.43;3.70;;;20.20;64.30;;;;;;4953921;28;20195;-89
2021/06/06 09:44:01;;;;;;;4.32;3.22;;;20.30;64.40;;;;;;4975318;28;20022;-86
2021/06/06 09:46:36;;;;;;;4.85;3.38;;;20.30;64.30;;;;;;4973712;28;20048;-87
2021/06/06 09:49:25;;;;;;;4.45;3.58;;;20.40;64.30;;;;;;4966708;28;20034;-89
2021/06/06 09:51:54;;;;;;;4.35;3.35;;;20.40;64.10;;;;;;4963598;28;20019;-86
2021/06/06 09:54:29;;;;;;;4.30;3.42;;;20.50;64.10;;;;;;4939655;28;20169;-88
2021/06/06 09:57:00;;;;;;;4.50;3.38;;;20.50;64.20;;;;;;4943531;29;20106;-89
2021/06/06 09:59:33;;;;;;;5.20;3.25;;;20.60;64.10;;;;;;4939823;28;20026;-87
2021/06/06 10:02:03;;;;;;;4.55;3.33;;;20.60;63.90;;;;;;4943038;28;20543;-89
2021/06/06 10:04:33;;;;;;;4.65;3.10;;;20.70;63.90;;;;;;4928951;28;20031;-88
2021/06/06 10:07:09;;;;;;;4.22;3.22;;;20.70;63.80;;;;;;4942789;28;20105;-89
2021/06/06 10:09:35;;;;;;;4.35;3.22;;;20.80;63.90;;;;;;4973999;28;20058;-88
2021/06/06 10:12:09;;;;;;;4.50;3.53;;;20.90;63.70;;;;;;4950888;28;20077;-89
2021/06/06 10:14:58;;;;;;;4.38;3.00;;;20.90;63.70;;;;;;4967194;28;20049;-88
2021/06/06 10:17:47;;;;;;;4.63;3.17;;;21.00;63.60;;;;;;4939705;28;20035;-89
2021/06/06 10:20:22;;;;;;;3.65;2.80;;;21.00;63.60;;;;;;4965510;28;20035;-88
2021/06/06 10:23:04;;;;;;;5.22;3.25;;;21.10;63.40;;;;;;4959111;28;20031;-88
2021/06/06 10:25:44;;;;;;;3.58;2.88;;;21.10;63.50;;;;;;4961776;28;20053;-88
2021/06/06 10:28:14;;;;;;;3.78;3.00;;;21.10;63.40;;;;;;4974350;28;20058;-90
2021/06/06 10:31:05;;;;;;;4.40;3.30;;;21.20;63.40;;;;;;4948610;28;20110;-89
2021/06/06 10:33:36;;;;;;;4.07;3.05;;;21.20;63.30;;;;;;4974282;28;20026;-90
2021/06/06 10:36:05;;;;;;;3.55;2.67;;;21.30;63.50;;;;;;4964004;28;20030;-89
2021/06/06 10:38:39;;;;;;;4.00;2.92;;;21.30;63.10;;;;;;4970252;28;20444;-89
2021/06/06 10:41:49;;;;;;;4.05;2.83;;;21.40;63.20;;;;;;4958123;28;20047;-89
2021/06/06 10:44:46;;;;;;;3.90;2.75;;;21.40;63.20;;;;;;4899983;29;20375;-90
2021/06/06 10:47:29;;;;;;;3.25;2.50;;;21.50;63.10;;;;;;4968439;28;20027;-90
2021/06/06 10:49:59;;;;;;;4.10;2.78;;;21.50;63.00;;;;;;4956410;28;20388;-88
2021/06/06 10:52:37;;;;;;;4.22;2.97;;;21.60;62.90;;;;;;4942114;28;20162;-90
2021/06/06 10:55:12;;;;;;;4.00;2.50;;;21.70;62.90;;;;;;4948537;28;20056;-90
2021/06/06 10:57:39;;;;;;;3.38;2.70;;;21.70;62.90;;;;;;4964911;28;20463;-90
2021/06/06 11:00:52;;;;;;;3.25;2.63;;;21.70;62.70;;;;;;4942196;28;20039;-92
2021/06/06 11:03:26;;;;;;;3.42;2.58;;;21.80;62.80;;;;;;4915542;28;20079;-91
2021/06/06 11:05:58;;;;;;;3.17;2.47;;;21.80;62.60;;;;;;4973227;28;20097;-92
2021/06/06 11:08:26;;;;;;;4.90;2.97;;;21.90;62.50;;;;;;4965821;28;20015;-93
2021/06/06 11:10:53;;;;;;;3.20;2.58;;;22.00;62.50;;;;;;4973707;28;20034;-92
2021/06/06 11:13:32;;;;;;;3.40;2.60;;;22.00;62.40;;;;;;4943269;28;20403;-89
2021/06/06 11:16:02;;;;;;;3.30;2.78;;;22.00;62.30;;;;;;4941417;28;20023;-86
2021/06/06 11:18:29;;;;;;;4.35;2.65;;;22.10;62.30;;;;;;4982877;28;20077;-90
2021/06/06 11:20:59;;;;;;;3.63;2.65;;;22.10;62.10;;;;;;4957087;28;20439;-90
2021/06/06 11:23:46;;;;;;;3.53;2.67;;;22.20;62.20;;;;;;4989684;28;20448;-95
2021/06/06 11:26:24;;;;;;;3.50;2.60;;;22.20;62.20;;;;;;4969263;28;20081;-95
2021/06/06 11:29:05;;;;;;;3.50;2.75;;;22.20;62.00;;;;;;4960117;28;20043;-94
2021/06/06 11:31:33;;;;;;;3.13;2.47;;;22.30;62.00;;;;;;4981638;28;20022;-95
2021/06/06 11:34:24;;;;;;;2.53;2.30;;;22.30;61.90;;;;;;4979646;28;20073;-94
2021/06/06 11:37:04;;;;;;;3.00;2.25;;;22.30;61.90;;;;;;4963627;28;20035;-91
2021/06/06 11:39:30;;;;;;;3.20;2.40;;;22.40;61.90;;;;;;4949700;28;20042;-93
2021/06/06 11:41:58;;;;;;;3.78;2.63;;;22.40;61.80;;;;;;4950508;28;20046;-93
2021/06/06 11:44:47;;;;;;;4.55;2.47;;;22.50;61.80;;;;;;4953452;28;20058;-94
2021/06/06 11:47:25;;;;;;;3.00;2.50;;;22.50;61.90;;;;;;4976999;28;20036;-93
2021/06/06 11:50:19;;;;;;;3.10;2.40;;;22.50;61.80;;;;;;4972510;28;20053;-92
2021/06/06 11:52:54;;;;;;;3.45;2.50;;;22.60;61.80;;;;;;4968927;28;20051;-93
2021/06/06 11:55:29;;;;;;;3.20;2.17;;;22.70;61.60;;;;;;4967448;28;20054;-86
2021/06/06 11:58:07;;;;;;;3.60;2.17;;;22.80;61.60;;;;;;4969974;28;20049;-88
2021/06/06 12:00:48;;;;;;;2.85;2.50;;;22.80;61.50;;;;;;4948469;28;20420;-88
2021/06/06 12:03:27;;;;;;;2.80;2.38;;;22.80;61.50;;;;;;4931506;28;20031;-91
2021/06/06 12:06:11;;;;;;;2.42;2.17;;;22.90;61.40;;;;;;4933738;28;20110;-88
2021/06/06 12:08:41;;;;;;;3.00;2.60;;;22.90;61.30;;;;;;4970616;28;20050;-90
2021/06/06 12:11:26;;;;;;;3.47;2.58;;;23.00;61.20;;;;;;4953672;28;20599;-93
2021/06/06 12:14:06;;;;;;;3.20;2.60;;;23.00;61.20;;;;;;4964786;28;20093;-92
2021/06/06 12:16:32;;;;;;;2.85;2.40;;;23.10;61.10;;;;;;4987059;28;20030;-92
2021/06/06 12:19:07;;;;;;;2.83;2.30;;;23.10;61.00;;;;;;4964501;28;20070;-91
2021/06/06 12:21:38;;;;;;;2.30;2.03;;;23.20;61.00;;;;;;4963663;28;20030;-91
2021/06/06 12:24:22;;;;;;;2.20;1.90;;;23.20;61.00;;;;;;4955130;28;20039;-90
2021/06/06 12:27:00;;;;;;;2.83;2.07;;;23.20;60.90;;;;;;4953522;28;20096;-88
2021/06/06 12:29:29;;;;;;;2.65;2.20;;;23.30;60.80;;;;;;4952895;28;20043;-89
2021/06/06 12:32:05;;;;;;;2.17;1.98;;;23.40;60.70;;;;;;4969378;28;20054;-88
2021/06/06 12:34:31;;;;;;;3.20;2.17;;;23.40;60.70;;;;;;4970009;28;20039;-89
2021/06/06 12:37:01;;;;;;;3.15;2.08;;;23.40;60.50;;;;;;4953952;28;20488;-88
2021/06/06 12:39:28;;;;;;;2.65;2.03;;;23.50;60.50;;;;;;4941692;28;20038;-88
2021/06/06 12:41:56;;;;;;;3.30;2.13;;;23.50;60.50;;;;;;4950726;28;20094;-89
2021/06/06 12:44:34;;;;;;;2.45;1.98;;;23.50;60.40;;;;;;4952610;28;20039;-89
2021/06/06 12:47:06;;;;;;;2.85;2.03;;;23.50;60.40;;;;;;4953988;28;20027;-90
2021/06/06 12:49:31;;;;;;;2.28;2.00;;;23.60;60.50;;;;;;4970888;28;20036;-90
2021/06/06 12:51:58;;;;;;;2.00;1.80;;;23.60;60.40;;;;;;4982105;28;20045;-89
2021/06/06 12:54:30;;;;;;;2.30;1.83;;;23.70;60.30;;;;;;4957163;28;20058;-89
2021/06/06 12:57:21;;;;;;;2.72;1.92;;;23.70;60.30;;;;;;4954507;28;20085;-88
2021/06/06 12:59:48;;;;;;;2.55;2.08;;;23.80;60.30;;;;;;4958603;28;20050;-87
2021/06/06 13:02:20;;;;;;;2.45;1.95;;;23.80;60.20;;;;;;4956361;28;20027;-90
2021/06/06 13:05:00;;;;;;;2.33;2.13;;;23.80;60.10;;;;;;4957096;28;20118;-91
2021/06/06 13:07:29;;;;;;;2.55;1.80;;;23.90;60.10;;;;;;4955709;28;20038;-90
2021/06/06 13:09:57;;;;;;;2.05;1.75;;;23.90;60.00;;;;;;4937846;28;20183;-90
2021/06/06 13:12:24;;;;;;;2.83;2.05;;;23.90;59.90;;;;;;4972170;28;20034;-90
2021/06/06 13:15:05;;;;;;;2.05;1.77;;;23.90;59.90;;;;;;4961825;28;20067;-85